Time;durP1;ratioP1;P1;durP2;ratioP2;P2;SDS_P1;SDS_P2;PMS_P1;PMS_P2;Temp;Humidity;BMP_temperature;BMP_pressure;BME280_temperature;BME280_humidity;BME280_pressure;Samples;Min_cycle;Max_cycle;Signal;HPM_P1;HPM_P2
2022/08/25 00:00:32;;;;;;;5.37;2.80;;;22.70;99.90;;;;;;5056525;28;20311;-43
2022/08/25 00:02:58;;;;;;;7.30;2.80;;;22.70;99.90;;;;;;5056619;28;20187;-43
2022/08/25 00:05:28;;;;;;;7.23;3.00;;;22.70;99.90;;;;;;5056279;28;20548;-45
2022/08/25 00:07:54;;;;;;;5.03;2.90;;;22.70;99.90;;;;;;5056389;28;20160;-42
2022/08/25 00:10:20;;;;;;;5.73;2.90;;;22.70;99.90;;;;;;5056031;28;20210;-45
2022/08/25 00:12:46;;;;;;;3.73;2.50;;;22.60;99.90;;;;;;5055967;28;20552;-42
2022/08/25 00:15:12;;;;;;;3.90;2.93;;;22.60;99.90;;;;;;5056320;28;20191;-44
2022/08/25 00:17:37;;;;;;;4.33;2.40;;;22.50;99.90;;;;;;5056269;28;20177;-46
2022/08/25 00:20:05;;;;;;;3.93;2.80;;;22.50;99.90;;;;;;5056271;28;20191;-44
2022/08/25 00:22:30;;;;;;;12.23;2.93;;;22.50;99.90;;;;;;5055857;28;20204;-44
2022/08/25 00:24:56;;;;;;;5.87;2.90;;;22.40;99.90;;;;;;5056078;28;20248;-44
2022/08/25 00:27:22;;;;;;;2.80;2.50;;;22.40;99.90;;;;;;5056076;28;20184;-43
2022/08/25 00:29:49;;;;;;;4.10;2.47;;;22.30;99.90;;;;;;5057907;28;20213;-42
2022/08/25 00:32:15;;;;;;;4.80;2.43;;;22.30;99.90;;;;;;5055814;28;20322;-40
2022/08/25 00:34:41;;;;;;;8.00;2.73;;;22.20;99.90;;;;;;5055734;28;20278;-38
2022/08/25 00:37:08;;;;;;;6.10;2.50;;;22.10;99.90;;;;;;5056056;28;20180;-40
2022/08/25 00:39:34;;;;;;;5.43;2.40;;;22.10;99.90;;;;;;5055573;28;20184;-40
2022/08/25 00:42:03;;;;;;;3.57;2.50;;;22.10;99.90;;;;;;5055563;28;20228;-41
2022/08/25 00:44:32;;;;;;;6.10;2.80;;;22.10;99.90;;;;;;5055809;28;20261;-40
2022/08/25 00:47:00;;;;;;;10.10;3.10;;;22.10;99.90;;;;;;5055712;28;20191;-40
2022/08/25 00:49:51;;;;;;;9.13;2.50;;;22.10;99.90;;;;;;5055492;28;20267;-41
2022/08/25 00:52:33;;;;;;;7.60;2.70;;;22.10;99.90;;;;;;5055500;28;20219;-39
2022/08/25 00:55:07;;;;;;;3.17;2.63;;;22.00;99.90;;;;;;5055578;28;20201;-39
2022/08/25 00:57:39;;;;;;;5.87;2.77;;;22.00;99.90;;;;;;5054377;28;20214;-39
2022/08/25 01:00:18;;;;;;;3.83;2.70;;;21.90;99.90;;;;;;5055394;28;20165;-41
2022/08/25 01:02:43;;;;;;;7.60;2.90;;;21.80;99.90;;;;;;5055444;28;20164;-41
2022/08/25 01:05:09;;;;;;;6.63;3.30;;;21.80;99.90;;;;;;5055374;28;20688;-39
2022/08/25 01:07:36;;;;;;;2.80;2.40;;;21.70;99.90;;;;;;5055019;28;20266;-40
2022/08/25 01:10:06;;;;;;;6.00;2.47;;;21.80;99.90;;;;;;5054945;28;20196;-41
2022/08/25 01:12:32;;;;;;;10.40;2.87;;;21.70;99.90;;;;;;5055070;28;20265;-40
2022/08/25 01:15:00;;;;;;;8.27;2.50;;;21.70;99.90;;;;;;5055207;28;20638;-38
2022/08/25 01:17:44;;;;;;;3.97;2.50;;;21.70;99.90;;;;;;5055163;28;20177;-39
2022/08/25 01:20:10;;;;;;;3.40;2.40;;;21.70;99.90;;;;;;5055111;28;20160;-39
2022/08/25 01:22:36;;;;;;;4.83;2.30;;;21.70;99.90;;;;;;5054939;28;20211;-40
2022/08/25 01:25:19;;;;;;;5.00;2.60;;;21.70;99.90;;;;;;5055115;28;20183;-39
2022/08/25 01:27:45;;;;;;;5.07;2.40;;;21.60;99.90;;;;;;5055029;28;20534;-39
2022/08/25 01:30:11;;;;;;;8.57;2.67;;;21.50;99.90;;;;;;5054771;28;20184;-42
2022/08/25 01:32:36;;;;;;;2.83;2.00;;;21.40;99.90;;;;;;5054530;28;20212;-39
2022/08/25 01:35:02;;;;;;;4.50;2.40;;;21.40;99.90;;;;;;5054599;28;20636;-41
2022/08/25 01:37:28;;;;;;;3.97;2.40;;;21.40;99.90;;;;;;5054739;28;20259;-40
2022/08/25 01:39:53;;;;;;;5.23;2.17;;;21.30;99.90;;;;;;5054612;28;20202;-40
2022/08/25 01:42:22;;;;;;;3.87;2.60;;;21.20;99.90;;;;;;5054733;28;20596;-39
2022/08/25 01:44:48;;;;;;;3.57;2.40;;;21.20;99.90;;;;;;5054579;28;20176;-40
2022/08/25 01:47:14;;;;;;;7.20;2.57;;;21.10;99.90;;;;;;5054509;28;20187;-41
2022/08/25 01:49:40;;;;;;;12.07;2.57;;;21.00;99.90;;;;;;5036724;28;20184;-41
2022/08/25 01:52:16;;;;;;;4.67;2.10;;;20.90;99.90;;;;;;5054592;28;20250;-41
2022/08/25 01:54:41;;;;;;;4.20;2.53;;;20.90;99.90;;;;;;5054406;28;20590;-41
2022/08/25 01:57:07;;;;;;;4.57;2.33;;;20.90;99.90;;;;;;5055023;28;20253;-41
2022/08/25 01:59:33;;;;;;;2.87;1.67;;;20.80;99.90;;;;;;5054642;28;20238;-41
2022/08/25 02:01:59;;;;;;;8.07;2.30;;;20.80;99.90;;;;;;5053913;28;20227;-40
2022/08/25 02:04:25;;;;;;;2.60;2.17;;;20.70;99.90;;;;;;5054104;28;20177;-39
2022/08/25 02:06:51;;;;;;;4.63;2.43;;;20.60;99.90;;;;;;5054181;28;20194;-41
2022/08/25 02:09:17;;;;;;;2.63;2.40;;;20.60;99.90;;;;;;5053820;28;20278;-40
2022/08/25 02:11:46;;;;;;;2.70;2.10;;;20.60;99.90;;;;;;5054103;28;20236;-41
2022/08/25 02:14:13;;;;;;;4.27;2.03;;;20.50;99.90;;;;;;5054193;28;20202;-41
2022/08/25 02:16:40;;;;;;;3.50;2.17;;;20.50;99.90;;;;;;5053885;28;20175;-41
2022/08/25 02:19:10;;;;;;;2.47;2.27;;;20.40;99.90;;;;;;5053662;28;20255;-41
2022/08/25 02:21:36;;;;;;;3.37;2.03;;;20.30;99.90;;;;;;5053821;28;20245;-41
2022/08/25 02:24:02;;;;;;;7.93;2.23;;;20.30;99.90;;;;;;5053999;28;20177;-42
2022/08/25 02:26:29;;;;;;;3.43;2.40;;;20.20;99.90;;;;;;5036003;28;20597;-39
2022/08/25 02:28:55;;;;;;;2.33;1.97;;;20.10;99.90;;;;;;5053517;28;20183;-40
2022/08/25 02:31:24;;;;;;;3.60;2.30;;;20.10;99.90;;;;;;5053411;28;20290;-41
2022/08/25 02:33:51;;;;;;;4.53;2.30;;;20.10;99.90;;;;;;5053662;28;20223;-41
2022/08/25 02:36:17;;;;;;;4.53;2.30;;;20.10;99.90;;;;;;5053647;28;20180;-39
2022/08/25 02:38:42;;;;;;;3.43;2.80;;;20.00;99.90;;;;;;5053386;28;20195;-41
2022/08/25 02:41:11;;;;;;;5.43;2.57;;;20.00;99.90;;;;;;5053488;28;20204;-40
2022/08/25 02:43:38;;;;;;;5.60;2.30;;;19.90;99.90;;;;;;5053648;28;20311;-41
2022/08/25 02:46:04;;;;;;;4.70;2.37;;;19.90;99.90;;;;;;5053547;28;20652;-40
2022/08/25 02:48:30;;;;;;;2.90;2.40;;;19.80;99.90;;;;;;5053209;28;20259;-40
2022/08/25 02:50:59;;;;;;;5.77;2.53;;;19.80;99.90;;;;;;5053428;28;20198;-42
2022/08/25 02:53:25;;;;;;;3.97;2.60;;;19.70;99.90;;;;;;5053414;28;20267;-42
2022/08/25 02:55:51;;;;;;;6.13;2.47;;;19.70;99.90;;;;;;5053410;28;20204;-40
2022/08/25 02:58:17;;;;;;;3.60;2.27;;;19.60;99.90;;;;;;5053657;28;20660;-41
2022/08/25 03:00:44;;;;;;;2.30;2.13;;;19.60;99.90;;;;;;5053956;28;20189;-45
2022/08/25 03:03:10;;;;;;;5.33;2.70;;;19.50;99.90;;;;;;5055032;28;20664;-44
2022/08/25 03:05:36;;;;;;;2.50;2.30;;;19.50;99.90;;;;;;5055466;28;20195;-41
2022/08/25 03:08:02;;;;;;;3.17;2.27;;;19.50;99.90;;;;;;5053041;28;20183;-41
2022/08/25 03:10:28;;;;;;;3.00;2.43;;;19.40;99.90;;;;;;5052846;28;20184;-42
2022/08/25 03:12:53;;;;;;;4.87;2.57;;;19.30;99.90;;;;;;5053281;28;20219;-40
2022/08/25 03:15:19;;;;;;;4.97;2.30;;;19.30;99.90;;;;;;5035098;28;20178;-38
2022/08/25 03:17:48;;;;;;;4.63;2.60;;;19.20;99.90;;;;;;5053031;28;20644;-41
2022/08/25 03:20:14;;;;;;;6.30;3.00;;;19.20;99.90;;;;;;5054720;28;20165;-40
2022/08/25 03:22:41;;;;;;;8.00;2.83;;;19.20;99.90;;;;;;5056913;28;20204;-40
2022/08/25 03:27:52;;;;;;;3.87;2.60;;;19.00;99.90;;;;;;5057447;28;20175;-40
2022/08/25 03:30:18;;;;;;;7.27;2.90;;;19.00;99.90;;;;;;5057203;28;20540;-41
2022/08/25 03:32:44;;;;;;;3.70;2.17;;;18.90;99.90;;;;;;5056998;28;20196;-38
2022/08/25 03:35:10;;;;;;;3.47;2.47;;;18.90;99.90;;;;;;5056987;28;20191;-40
2022/08/25 03:37:36;;;;;;;5.63;3.30;;;18.90;99.90;;;;;;5056798;28;20176;-41
2022/08/25 03:40:05;;;;;;;4.87;2.70;;;18.90;99.90;;;;;;5056918;28;20582;-41
2022/08/25 03:42:31;;;;;;;3.93;2.87;;;18.80;99.90;;;;;;5056738;28;20192;-40
2022/08/25 03:44:56;;;;;;;5.60;2.83;;;18.80;99.90;;;;;;5056960;28;20275;-41
2022/08/25 03:47:24;;;;;;;3.33;2.97;;;18.80;99.90;;;;;;5056572;28;20211;-38
2022/08/25 03:49:50;;;;;;;7.83;3.27;;;18.70;99.90;;;;;;5056386;28;20546;-39
2022/08/25 03:52:17;;;;;;;5.93;3.33;;;18.70;99.90;;;;;;5056625;28;20212;-40
2022/08/25 03:54:43;;;;;;;8.03;3.93;;;18.70;99.90;;;;;;5056501;28;20180;-41
2022/08/25 03:57:09;;;;;;;6.43;3.33;;;18.60;99.90;;;;;;5056400;28;20172;-42
2022/08/25 03:59:37;;;;;;;5.70;3.60;;;18.60;99.90;;;;;;5056267;28;20168;-44
2022/08/25 04:02:04;;;;;;;5.00;3.40;;;18.60;99.90;;;;;;5056443;28;20204;-44
2022/08/25 04:04:30;;;;;;;5.90;3.60;;;18.50;99.90;;;;;;5056167;28;20577;-42
2022/08/25 04:06:55;;;;;;;8.70;3.60;;;18.50;99.90;;;;;;5056240;28;20187;-43
2022/08/25 04:09:21;;;;;;;6.20;3.87;;;18.50;99.90;;;;;;5037967;28;20231;-44
2022/08/25 04:11:47;;;;;;;5.77;3.27;;;18.50;99.90;;;;;;5056211;28;20204;-44
2022/08/25 04:14:13;;;;;;;5.87;3.27;;;18.40;99.90;;;;;;5055995;28;20176;-43
2022/08/25 04:16:39;;;;;;;4.77;3.27;;;18.40;99.90;;;;;;5055992;28;20241;-43
2022/08/25 04:19:08;;;;;;;4.97;3.23;;;18.40;99.90;;;;;;5056244;28;20173;-43
2022/08/25 04:21:34;;;;;;;4.40;3.17;;;18.30;99.90;;;;;;5037925;28;20204;-43
2022/08/25 04:24:00;;;;;;;7.77;3.20;;;18.30;99.90;;;;;;5038027;28;20723;-45
2022/08/25 04:26:33;;;;;;;7.23;3.30;;;18.30;99.90;;;;;;5038277;28;20215;-44
2022/08/25 04:29:01;;;;;;;5.07;3.30;;;18.30;99.90;;;;;;5056114;28;20173;-44
2022/08/25 04:31:28;;;;;;;3.40;3.00;;;18.30;99.90;;;;;;5055744;28;20215;-45
2022/08/25 04:33:54;;;;;;;5.53;3.30;;;18.20;99.90;;;;;;5056141;28;20180;-42
2022/08/25 04:36:20;;;;;;;5.20;3.13;;;18.20;99.90;;;;;;5055943;28;20207;-43
2022/08/25 04:38:48;;;;;;;8.80;3.70;;;18.20;99.90;;;;;;5056062;28;20176;-43
2022/08/25 04:41:17;;;;;;;6.47;3.20;;;18.20;99.90;;;;;;5055879;28;20211;-43
2022/08/25 04:43:44;;;;;;;7.70;3.77;;;18.20;99.90;;;;;;5055640;28;20233;-42
2022/08/25 04:46:13;;;;;;;6.90;3.20;;;18.10;99.90;;;;;;5055563;28;20215;-43
2022/08/25 04:48:40;;;;;;;3.90;3.10;;;18.10;99.90;;;;;;5037588;28;20283;-44
2022/08/25 04:51:08;;;;;;;5.47;3.00;;;18.10;99.90;;;;;;5056658;28;20672;-45
2022/08/25 04:53:35;;;;;;;5.80;3.03;;;18.00;99.90;;;;;;5058625;28;20176;-43
2022/08/25 04:56:04;;;;;;;4.70;3.00;;;18.00;99.90;;;;;;5058116;28;20176;-44
2022/08/25 04:58:30;;;;;;;11.50;3.67;;;18.00;99.90;;;;;;5056875;28;20190;-42
2022/08/25 05:01:09;;;;;;;8.57;3.70;;;18.00;99.90;;;;;;5056118;28;20196;-43
2022/08/25 05:03:36;;;;;;;5.13;3.50;;;18.00;99.90;;;;;;5056856;28;20164;-42
2022/08/25 05:06:03;;;;;;;6.33;3.90;;;18.00;99.90;;;;;;5056038;28;20635;-43
2022/08/25 05:08:30;;;;;;;5.10;3.07;;;17.90;99.90;;;;;;5055085;28;20184;-44
2022/08/25 05:10:56;;;;;;;6.33;3.53;;;17.90;99.90;;;;;;5037059;28;20204;-44
2022/08/25 05:13:24;;;;;;;6.37;3.60;;;17.90;99.90;;;;;;5055082;28;20187;-45
2022/08/25 05:15:54;;;;;;;4.37;3.60;;;17.90;99.90;;;;;;5037234;28;20180;-43
2022/08/25 05:18:22;;;;;;;5.00;3.27;;;17.90;99.90;;;;;;5054894;28;20276;-42
2022/08/25 05:20:49;;;;;;;5.27;3.20;;;17.90;99.90;;;;;;5055352;28;20227;-44
2022/08/25 05:23:15;;;;;;;7.57;3.53;;;18.00;99.90;;;;;;5055093;28;20176;-43
2022/08/25 05:25:41;;;;;;;9.50;3.03;;;18.00;99.90;;;;;;5055216;28;20591;-42
2022/08/25 05:28:08;;;;;;;7.53;3.40;;;18.00;99.90;;;;;;5055154;28;20188;-45
2022/08/25 05:30:36;;;;;;;5.53;3.40;;;18.10;99.90;;;;;;5054700;28;20192;-43
2022/08/25 05:33:02;;;;;;;6.70;3.60;;;18.10;99.90;;;;;;5054539;28;20208;-45
2022/08/25 05:35:28;;;;;;;4.60;3.20;;;18.20;99.90;;;;;;5054986;28;20180;-43
2022/08/25 05:37:56;;;;;;;3.80;3.40;;;18.20;99.90;;;;;;5054848;28;20184;-44
2022/08/25 05:40:22;;;;;;;10.87;3.23;;;18.20;99.90;;;;;;5055499;28;20533;-44
2022/08/25 05:42:47;;;;;;;4.73;3.40;;;18.20;99.90;;;;;;5054447;28;20184;-43
2022/08/25 05:45:13;;;;;;;4.73;3.23;;;18.30;99.90;;;;;;5036772;28;20219;-45
2022/08/25 05:47:39;;;;;;;6.53;3.30;;;18.40;99.90;;;;;;5036682;28;20184;-44
2022/08/25 05:50:06;;;;;;;4.87;2.90;;;18.40;99.90;;;;;;5054534;28;20177;-43
2022/08/25 05:52:32;;;;;;;10.47;4.70;;;18.50;99.90;;;;;;5054315;28;20236;-44
2022/08/25 05:54:57;;;;;;;6.47;3.17;;;18.50;99.90;;;;;;5054651;28;20207;-44
2022/08/25 05:57:23;;;;;;;8.63;3.23;;;18.60;99.90;;;;;;5054716;28;20176;-43
2022/08/25 05:59:49;;;;;;;8.83;3.57;;;18.80;99.90;;;;;;5055507;28;20190;-44
2022/08/25 06:04:58;;;;;;;8.10;3.73;;;18.90;99.90;;;;;;5054611;28;20195;-45
2022/08/25 06:07:24;;;;;;;9.37;3.60;;;19.00;99.90;;;;;;5054509;28;20212;-46
2022/08/25 06:09:50;;;;;;;12.23;4.10;;;19.10;99.90;;;;;;5054407;28;20269;-44
2022/08/25 06:12:17;;;;;;;5.97;3.57;;;19.20;99.90;;;;;;5054278;28;20239;-41
2022/08/25 06:14:43;;;;;;;8.47;3.20;;;19.30;99.90;;;;;;5054210;28;20195;-40
2022/08/25 06:17:09;;;;;;;5.40;2.87;;;19.40;99.90;;;;;;5036254;28;20597;-38
2022/08/25 06:19:35;;;;;;;9.23;3.50;;;19.50;99.90;;;;;;5054034;28;20195;-42
2022/08/25 06:22:00;;;;;;;9.27;2.97;;;19.60;99.90;;;;;;5053879;28;20244;-40
2022/08/25 06:24:28;;;;;;;5.10;3.33;;;19.60;99.90;;;;;;5053807;28;20184;-39
2022/08/25 06:26:54;;;;;;;8.77;3.30;;;19.70;99.90;;;;;;5053911;28;20269;-42
2022/08/25 06:29:20;;;;;;;6.30;3.20;;;19.90;99.90;;;;;;5053688;28;20206;-39
2022/08/25 06:31:48;;;;;;;6.03;3.03;;;20.00;99.90;;;;;;5053657;28;20302;-41
2022/08/25 06:34:14;;;;;;;6.10;3.00;;;20.20;99.90;;;;;;5036431;28;20195;-38
2022/08/25 06:36:40;;;;;;;7.73;3.00;;;20.30;99.90;;;;;;5053462;28;20184;-39
2022/08/25 06:39:05;;;;;;;7.93;3.20;;;20.40;99.90;;;;;;5036004;28;20632;-38
2022/08/25 06:41:31;;;;;;;4.93;3.17;;;20.50;99.90;;;;;;5053566;28;20212;-40
2022/08/25 06:43:58;;;;;;;4.63;2.87;;;20.70;99.90;;;;;;5053457;28;20184;-40
2022/08/25 06:46:25;;;;;;;7.43;3.50;;;20.80;99.90;;;;;;5053393;28;20204;-40
2022/08/25 06:48:53;;;;;;;5.93;3.07;;;21.00;99.90;;;;;;5053760;28;20192;-40
2022/08/25 06:51:19;;;;;;;6.63;3.00;;;21.10;99.90;;;;;;5035308;28;20215;-41
2022/08/25 06:53:47;;;;;;;5.37;3.20;;;21.30;99.90;;;;;;5053333;28;20176;-39
2022/08/25 06:56:14;;;;;;;4.23;3.00;;;21.40;99.90;;;;;;5053429;28;20233;-39
2022/08/25 06:58:41;;;;;;;4.87;3.20;;;21.50;99.90;;;;;;5053330;28;20180;-39
2022/08/25 07:01:13;;;;;;;8.73;3.53;;;21.70;99.90;;;;;;5053373;28;20196;-39
2022/08/25 07:03:39;;;;;;;8.63;3.37;;;21.90;99.90;;;;;;5053275;28;20223;-39
2022/08/25 07:06:05;;;;;;;6.60;3.03;;;22.00;99.90;;;;;;5053227;28;20207;-39
2022/08/25 07:08:30;;;;;;;9.30;2.97;;;22.10;99.90;;;;;;5053327;28;20203;-40
2022/08/25 07:10:56;;;;;;;5.97;3.07;;;22.40;99.90;;;;;;5053133;28;20200;-40
2022/08/25 07:13:22;;;;;;;8.77;3.00;;;22.50;99.90;;;;;;5053075;28;20533;-38
2022/08/25 07:15:52;;;;;;;8.70;3.40;;;22.60;99.90;;;;;;5053163;28;20175;-39
2022/08/25 07:18:18;;;;;;;8.87;3.00;;;22.80;99.90;;;;;;5053116;28;20161;-40
2022/08/25 07:20:44;;;;;;;11.07;3.40;;;22.90;99.90;;;;;;5053068;28;20279;-39
2022/08/25 07:23:10;;;;;;;6.43;2.70;;;23.00;99.90;;;;;;5053118;28;20663;-39
2022/08/25 07:25:36;;;;;;;12.90;3.00;;;23.20;99.90;;;;;;5053271;28;20180;-40
2022/08/25 07:28:02;;;;;;;9.53;3.20;;;23.30;99.90;;;;;;5035195;28;20180;-40
2022/08/25 07:30:28;;;;;;;4.80;2.67;;;23.50;99.90;;;;;;5053082;28;20211;-41
2022/08/25 07:32:54;;;;;;;8.13;2.93;;;23.60;99.90;;;;;;5052953;28;20322;-39
2022/08/25 07:35:22;;;;;;;6.83;2.90;;;23.70;99.90;;;;;;5053387;28;20180;-40
2022/08/25 07:37:56;;;;;;;6.50;2.90;;;23.80;99.90;;;;;;5053095;28;20658;-40
2022/08/25 07:40:25;;;;;;;3.77;2.50;;;23.90;99.90;;;;;;5053322;28;20164;-41
2022/08/25 07:42:53;;;;;;;6.73;2.80;;;24.00;99.90;;;;;;5035333;28;20185;-39
2022/08/25 07:45:24;;;;;;;4.20;3.10;;;24.10;99.90;;;;;;5053199;28;20259;-41
2022/08/25 07:47:52;;;;;;;6.83;3.37;;;24.20;99.90;;;;;;5053261;28;20210;-40
2022/08/25 07:50:18;;;;;;;10.97;3.07;;;24.40;99.90;;;;;;5052764;28;20684;-41
2022/08/25 07:52:45;;;;;;;6.73;2.77;;;24.60;99.90;;;;;;5052678;28;20261;-40
2022/08/25 07:55:10;;;;;;;4.47;2.43;;;24.70;99.90;;;;;;5053119;28;20260;-45
2022/08/25 07:57:39;;;;;;;3.87;2.53;;;24.80;99.90;;;;;;5052718;28;20719;-42
2022/08/25 08:00:06;;;;;;;6.43;3.30;;;24.90;99.90;;;;;;5052746;28;20176;-41
2022/08/25 08:02:31;;;;;;;10.73;2.50;;;25.00;99.90;;;;;;5052911;28;20235;-41
2022/08/25 08:04:58;;;;;;;8.47;3.00;;;25.10;99.90;;;;;;5053049;28;20191;-40
2022/08/25 08:07:25;;;;;;;3.57;2.50;;;25.20;99.90;;;;;;5039975;28;20177;-44
2022/08/25 08:09:51;;;;;;;9.90;2.60;;;25.30;99.90;;;;;;5065776;28;20223;-45
2022/08/25 08:12:17;;;;;;;9.53;2.47;;;25.50;99.90;;;;;;5065983;28;20208;-45
2022/08/25 08:14:43;;;;;;;6.63;3.00;;;25.50;99.90;;;;;;5066755;28;20293;-45
2022/08/25 08:17:10;;;;;;;4.57;2.50;;;25.60;99.90;;;;;;5066100;28;20182;-46
2022/08/25 08:19:36;;;;;;;5.17;2.40;;;25.70;99.90;;;;;;5066566;28;20230;-46
2022/08/25 08:22:03;;;;;;;3.20;2.40;;;25.80;99.90;;;;;;5067012;28;20669;-44
2022/08/25 08:24:30;;;;;;;5.23;2.80;;;26.00;99.90;;;;;;5048355;28;20184;-43
2022/08/25 08:26:56;;;;;;;5.70;2.50;;;26.00;99.90;;;;;;5067203;28;20180;-45
2022/08/25 08:29:22;;;;;;;5.27;3.10;;;26.10;99.90;;;;;;5067157;28;20180;-45
2022/08/25 08:31:47;;;;;;;3.13;2.30;;;26.20;99.90;;;;;;5067664;28;20692;-44
2022/08/25 08:34:14;;;;;;;3.30;2.23;;;26.40;99.90;;;;;;5064410;28;20204;-42
2022/08/25 08:36:39;;;;;;;6.53;2.53;;;26.60;99.90;;;;;;5056056;28;20192;-45
2022/08/25 08:39:05;;;;;;;4.80;2.37;;;26.70;99.90;;;;;;5056131;28;20181;-44
2022/08/25 08:44:49;;;;;;;5.80;2.43;;;26.90;99.90;;;;;;5056003;28;20259;-43
2022/08/25 08:47:29;;;;;;;5.00;3.17;;;27.00;99.90;;;;;;5037857;28;20204;-44
2022/08/25 08:50:18;;;;;;;6.83;2.30;;;27.10;99.90;;;;;;5055632;28;20188;-44
2022/08/25 08:52:47;;;;;;;6.23;2.40;;;27.30;99.90;;;;;;5055558;28;20593;-45
2022/08/25 08:55:31;;;;;;;4.97;2.10;;;27.40;99.90;;;;;;5037874;28;20180;-45
2022/08/25 08:58:00;;;;;;;7.00;2.27;;;27.40;99.90;;;;;;5055819;28;20190;-46
2022/08/25 09:00:27;;;;;;;6.37;2.33;;;27.50;99.90;;;;;;5055573;28;20180;-46
2022/08/25 09:03:05;;;;;;;4.47;2.30;;;27.60;99.90;;;;;;5055297;28;20180;-40
2022/08/25 09:05:41;;;;;;;4.03;2.17;;;27.70;99.90;;;;;;5055465;28;20183;-41
2022/08/25 09:08:11;;;;;;;8.37;2.40;;;27.80;99.90;;;;;;5055324;28;20214;-42
2022/08/25 09:10:56;;;;;;;3.60;2.10;;;27.90;99.50;;;;;;5055325;28;20176;-41
2022/08/25 09:14:11;;;;;;;4.23;2.00;;;28.00;99.10;;;;;;5055337;28;20200;-40
2022/08/25 09:16:53;;;;;;;8.30;2.33;;;28.10;98.70;;;;;;4974161;28;20274;-42
2022/08/25 09:19:37;;;;;;;4.10;2.00;;;28.20;98.30;;;;;;4973669;28;20194;-39
2022/08/25 09:22:18;;;;;;;4.13;1.93;;;28.30;97.70;;;;;;5036595;28;20216;-40
2022/08/25 09:24:53;;;;;;;4.13;2.30;;;28.30;98.40;;;;;;5055156;28;20160;-42
2022/08/25 09:27:44;;;;;;;7.47;2.30;;;28.40;98.10;;;;;;5055209;28;20241;-41
2022/08/25 09:30:18;;;;;;;2.43;2.00;;;28.50;97.60;;;;;;5055215;28;20180;-41
2022/08/25 09:32:49;;;;;;;2.27;1.70;;;28.70;97.80;;;;;;5055469;28;20629;-40
2022/08/25 09:35:23;;;;;;;3.80;1.90;;;28.80;97.80;;;;;;5055156;28;20214;-41
2022/08/25 09:37:59;;;;;;;5.87;1.90;;;28.90;95.70;;;;;;5054832;28;20199;-41
2022/08/25 09:40:26;;;;;;;3.73;1.90;;;29.00;97.50;;;;;;5054601;28;20254;-40
2022/08/25 09:42:55;;;;;;;4.73;1.97;;;29.10;97.10;;;;;;5054863;28;20310;-40
2022/08/25 09:45:36;;;;;;;8.80;2.10;;;29.20;97.10;;;;;;5054841;28;20537;-38
2022/08/25 09:48:21;;;;;;;5.40;2.13;;;29.30;95.50;;;;;;5054816;28;20184;-41
2022/08/25 09:50:49;;;;;;;2.47;1.80;;;29.40;96.80;;;;;;5054422;28;20203;-41
2022/08/25 09:53:16;;;;;;;6.80;2.23;;;29.50;96.50;;;;;;5054283;28;20687;-40
2022/08/25 09:55:44;;;;;;;5.97;2.20;;;29.60;96.90;;;;;;5036418;28;20204;-40
2022/08/25 09:58:18;;;;;;;4.20;1.70;;;29.70;97.40;;;;;;5054495;28;20172;-41
2022/08/25 10:00:45;;;;;;;2.10;1.60;;;29.80;96.70;;;;;;5054178;28;20196;-42
2022/08/25 10:03:19;;;;;;;3.95;1.95;;;30.00;96.30;;;;;;5054125;28;20191;-40
2022/08/25 10:06:05;;;;;;;2.40;1.75;;;30.10;95.80;;;;;;5036226;28;20218;-41
2022/08/25 10:08:42;;;;;;;3.40;1.95;;;30.20;95.40;;;;;;5054064;28;20200;-41
2022/08/25 10:11:12;;;;;;;5.80;2.20;;;30.20;95.40;;;;;;5054035;28;20250;-40
2022/08/25 10:13:42;;;;;;;6.27;2.20;;;30.30;96.00;;;;;;5054320;28;20583;-38
2022/08/25 10:16:27;;;;;;;3.95;2.03;;;30.40;96.10;;;;;;5054251;28;20177;-41
2022/08/25 10:19:11;;;;;;;2.50;1.92;;;30.50;94.50;;;;;;5054217;28;20221;-39
2022/08/25 10:21:40;;;;;;;4.40;1.85;;;30.60;95.00;;;;;;5054082;28;20199;-41
2022/08/25 10:24:08;;;;;;;3.20;1.92;;;30.60;94.70;;;;;;5054077;28;20680;-40
2022/08/25 10:26:58;;;;;;;9.93;2.10;;;30.70;94.80;;;;;;5036004;28;20188;-39
2022/08/25 10:29:46;;;;;;;4.18;2.10;;;30.90;94.60;;;;;;5035539;28;20218;-41
2022/08/25 10:32:36;;;;;;;6.00;2.08;;;31.00;95.70;;;;;;5053568;28;20204;-41
2022/08/25 10:35:12;;;;;;;3.47;2.38;;;31.10;94.70;;;;;;5035871;28;20168;-38
2022/08/25 10:38:01;;;;;;;4.15;2.75;;;31.30;95.50;;;;;;5053668;28;20239;-42
2022/08/25 10:40:37;;;;;;;6.50;2.30;;;31.40;92.30;;;;;;5053794;28;20184;-41
2022/08/25 10:43:16;;;;;;;3.25;2.13;;;31.40;93.90;;;;;;5053796;28;20534;-45
2022/08/25 10:45:51;;;;;;;4.72;1.90;;;31.40;92.90;;;;;;5053785;28;20616;-40
2022/08/25 10:48:32;;;;;;;4.55;1.88;;;31.50;91.60;;;;;;5053460;28;20172;-41
2022/08/25 10:51:13;;;;;;;4.18;2.42;;;31.50;92.10;;;;;;5053286;28;20204;-42
2022/08/25 10:54:20;;;;;;;5.43;2.30;;;31.50;92.10;;;;;;5053740;28;20192;-41
2022/08/25 10:57:16;;;;;;;4.88;2.10;;;31.40;92.00;;;;;;5042571;28;20297;-41
2022/08/25 11:00:09;;;;;;;4.28;2.33;;;31.40;93.30;;;;;;5053531;28;20168;-38
2022/08/25 11:02:56;;;;;;;3.30;2.15;;;31.50;92.90;;;;;;5053492;28;20196;-42
2022/08/25 11:05:26;;;;;;;3.75;2.08;;;31.70;93.50;;;;;;5053198;28;20169;-41
2022/08/25 11:08:26;;;;;;;2.95;1.70;;;31.80;93.40;;;;;;5053459;28;20164;-42
2022/08/25 11:11:20;;;;;;;2.55;1.92;;;32.00;93.30;;;;;;5053329;28;20207;-43
2022/08/25 11:14:00;;;;;;;5.45;2.20;;;32.10;92.40;;;;;;5053367;28;20529;-40
2022/08/25 11:16:40;;;;;;;6.13;1.90;;;32.20;93.60;;;;;;5053250;28;20187;-42
2022/08/25 11:19:22;;;;;;;3.47;2.00;;;32.40;94.20;;;;;;5053446;28;20210;-42
2022/08/25 11:21:51;;;;;;;2.30;2.10;;;32.50;94.40;;;;;;5035169;28;20203;-40
2022/08/25 11:24:30;;;;;;;3.35;1.70;;;32.60;93.10;;;;;;5053407;28;20176;-42
2022/08/25 11:26:58;;;;;;;2.00;1.60;;;32.60;92.70;;;;;;5053345;28;20164;-41
2022/08/25 11:29:30;;;;;;;8.27;2.05;;;32.70;88.10;;;;;;5034857;28;20179;-43
2022/08/25 11:31:59;;;;;;;2.35;1.88;;;32.60;87.30;;;;;;5053100;28;20215;-42
2022/08/25 11:34:30;;;;;;;1.80;1.60;;;32.60;90.90;;;;;;5052839;28;20294;-40
2022/08/25 11:37:12;;;;;;;14.07;2.47;;;32.80;92.40;;;;;;5053361;28;20571;-38
2022/08/25 11:39:51;;;;;;;2.58;1.70;;;33.00;93.20;;;;;;5052943;28;20251;-41
2022/08/25 11:42:35;;;;;;;5.88;2.90;;;33.10;93.60;;;;;;5056020;28;20668;-41
2022/08/25 11:45:20;;;;;;;3.15;1.73;;;33.20;93.80;;;;;;5056721;28;20632;-44
2022/08/25 11:48:16;;;;;;;6.70;1.60;;;33.10;87.20;;;;;;5056953;28;20176;-45
2022/08/25 11:51:01;;;;;;;2.78;1.50;;;33.10;88.00;;;;;;5056820;28;20204;-43
2022/08/25 11:53:28;;;;;;;5.00;1.83;;;33.20;88.20;;;;;;5056450;28;20661;-45
2022/08/25 11:55:57;;;;;;;1.88;1.38;;;33.20;87.00;;;;;;5056810;28;20180;-42
2022/08/25 11:58:43;;;;;;;2.53;1.90;;;33.20;89.20;;;;;;5056691;28;20656;-42
2022/08/25 12:01:38;;;;;;;5.15;2.25;;;33.40;83.60;;;;;;5056711;28;20211;-45
2022/08/25 12:04:32;;;;;;;2.97;2.10;;;33.40;82.40;;;;;;5056310;28;20176;-44
2022/08/25 12:07:09;;;;;;;4.22;1.58;;;33.30;81.60;;;;;;5038442;28;20255;-42
2022/08/25 12:09:50;;;;;;;5.57;1.70;;;33.20;87.30;;;;;;5056326;28;20589;-45
2022/08/25 12:12:41;;;;;;;4.47;1.88;;;33.30;89.40;;;;;;5056232;28;20688;-44
2022/08/25 12:15:28;;;;;;;2.50;1.80;;;33.50;87.60;;;;;;5046963;28;20196;-44
2022/08/25 12:18:14;;;;;;;1.75;1.60;;;33.60;89.50;;;;;;5056617;28;20176;-44
2022/08/25 12:20:52;;;;;;;3.70;1.60;;;33.70;85.90;;;;;;5056216;28;20193;-44
2022/08/25 12:23:41;;;;;;;3.53;1.90;;;33.80;89.10;;;;;;5056137;28;20675;-43
2022/08/25 12:26:12;;;;;;;4.10;1.63;;;34.00;89.90;;;;;;5056413;28;20217;-43
2022/08/25 12:28:41;;;;;;;1.92;1.50;;;34.10;81.10;;;;;;5056400;28;20161;-44
2022/08/25 12:31:19;;;;;;;1.58;1.33;;;34.10;84.00;;;;;;5056723;28;20275;-43
2022/08/25 12:34:19;;;;;;;4.85;1.67;;;34.00;77.30;;;;;;5057285;28;20176;-45
2022/08/25 12:36:56;;;;;;;1.85;1.70;;;34.00;81.70;;;;;;5056607;28;20172;-45
2022/08/25 12:39:29;;;;;;;3.03;1.90;;;34.00;80.40;;;;;;5056324;28;20153;-44
2022/08/25 12:42:00;;;;;;;3.88;1.73;;;33.90;79.00;;;;;;5060395;28;20235;-46
2022/08/25 12:44:42;;;;;;;5.10;1.95;;;33.90;80.80;;;;;;5060945;28;20530;-45
2022/08/25 12:47:13;;;;;;;2.58;1.95;;;33.70;77.40;;;;;;5060126;28;20172;-45
2022/08/25 12:49:39;;;;;;;6.47;1.70;;;33.60;77.70;;;;;;5060143;28;20180;-46
2022/08/25 12:52:23;;;;;;;3.55;1.75;;;33.60;81.70;;;;;;5057985;28;20546;-44
2022/08/25 12:54:54;;;;;;;5.07;1.98;;;33.70;80.50;;;;;;5056089;28;20171;-43
2022/08/25 12:57:49;;;;;;;3.20;1.60;;;33.80;79.60;;;;;;5056048;28;20188;-44
2022/08/25 13:00:16;;;;;;;1.90;1.70;;;33.80;83.30;;;;;;5056134;28;20252;-44
2022/08/25 13:02:51;;;;;;;3.53;1.67;;;34.00;79.90;;;;;;5056078;28;20192;-44
2022/08/25 13:05:43;;;;;;;2.33;1.63;;;34.10;82.20;;;;;;5056175;28;20183;-44
2022/08/25 13:08:36;;;;;;;6.55;1.80;;;34.10;78.20;;;;;;5056571;28;20275;-46
2022/08/25 13:11:18;;;;;;;3.83;1.60;;;33.90;76.90;;;;;;5056680;28;20622;-40
2022/08/25 13:14:06;;;;;;;2.08;1.50;;;33.90;82.70;;;;;;5055736;28;20160;-41